sensor_id;sensor_type;location;lat;lon;timestamp;pressure;altitude;pressure_sealevel;temperature
64600;BMP280;6553;48.412;9.514;2023-08-24T00:01:20;72157.44;;;24.46
64600;BMP280;6553;48.412;9.514;2023-08-24T00:03:47;72161.03;;;24.52
64600;BMP280;6553;48.412;9.514;2023-08-24T00:06:13;72152.00;;;24.44
64600;BMP280;6553;48.412;9.514;2023-08-24T00:08:39;72158.78;;;24.53
64600;BMP280;6553;48.412;9.514;2023-08-24T00:11:05;72171.28;;;24.59
64600;BMP280;6553;48.412;9.514;2023-08-24T00:13:32;72157.84;;;24.49
64600;BMP280;6553;48.412;9.514;2023-08-24T00:15:57;72160.38;;;24.54
64600;BMP280;6553;48.412;9.514;2023-08-24T00:18:24;72159.56;;;24.48
64600;BMP280;6553;48.412;9.514;2023-08-24T00:20:50;72152.28;;;24.39
64600;BMP280;6553;48.412;9.514;2023-08-24T00:23:17;72154.00;;;24.48
64600;BMP280;6553;48.412;9.514;2023-08-24T00:25:43;72153.72;;;24.43
64600;BMP280;6553;48.412;9.514;2023-08-24T00:28:10;72155.84;;;24.45
64600;BMP280;6553;48.412;9.514;2023-08-24T00:30:37;72157.72;;;24.52
64600;BMP280;6553;48.412;9.514;2023-08-24T00:33:03;72154.66;;;24.46
64600;BMP280;6553;48.412;9.514;2023-08-24T00:35:30;72150.53;;;24.40
64600;BMP280;6553;48.412;9.514;2023-08-24T00:37:56;72151.59;;;24.41
64600;BMP280;6553;48.412;9.514;2023-08-24T00:40:22;72154.25;;;24.43
64600;BMP280;6553;48.412;9.514;2023-08-24T00:42:48;72144.41;;;24.39
64600;BMP280;6553;48.412;9.514;2023-08-24T00:45:14;72148.28;;;24.40
64600;BMP280;6553;48.412;9.514;2023-08-24T00:47:44;72157.44;;;24.46
64600;BMP280;6553;48.412;9.514;2023-08-24T00:50:10;72156.94;;;24.46
64600;BMP280;6553;48.412;9.514;2023-08-24T00:52:42;72144.94;;;24.40
64600;BMP280;6553;48.412;9.514;2023-08-24T00:55:09;72148.13;;;24.43
64600;BMP280;6553;48.412;9.514;2023-08-24T00:57:37;72154.25;;;24.43
64600;BMP280;6553;48.412;9.514;2023-08-24T01:00:06;72146.69;;;24.39
64600;BMP280;6553;48.412;9.514;2023-08-24T01:02:34;72152.13;;;24.41
64600;BMP280;6553;48.412;9.514;2023-08-24T01:05:00;72138.72;;;24.31
64600;BMP280;6553;48.412;9.514;2023-08-24T01:07:26;72144.03;;;24.36
64600;BMP280;6553;48.412;9.514;2023-08-24T01:09:53;72150.53;;;24.40
64600;BMP280;6553;48.412;9.514;2023-08-24T01:15:50;72151.06;;;24.40
64600;BMP280;6553;48.412;9.514;2023-08-24T01:18:18;72148.41;;;24.38
64600;BMP280;6553;48.412;9.514;2023-08-24T01:20:48;72147.09;;;24.42
64600;BMP280;6553;48.412;9.514;2023-08-24T01:23:34;72145.75;;;24.35
64600;BMP280;6553;48.412;9.514;2023-08-24T01:26:14;72139.38;;;24.29
64600;BMP280;6553;48.412;9.514;2023-08-24T01:28:44;72141.50;;;24.31
64600;BMP280;6553;48.412;9.514;2023-08-24T01:31:10;72135.78;;;24.23
64600;BMP280;6553;48.412;9.514;2023-08-24T01:33:36;72144.28;;;24.31
64600;BMP280;6553;48.412;9.514;2023-08-24T01:36:02;72143.09;;;24.33
64600;BMP280;6553;48.412;9.514;2023-08-24T01:38:29;72148.00;;;24.35
64600;BMP280;6553;48.412;9.514;2023-08-24T01:43:30;72129.00;;;24.25
64600;BMP280;6553;48.412;9.514;2023-08-24T01:46:02;72135.09;;;24.25
64600;BMP280;6553;48.412;9.514;2023-08-24T01:48:30;72142.16;;;24.29
64600;BMP280;6553;48.412;9.514;2023-08-24T01:50:58;72143.75;;;24.31
64600;BMP280;6553;48.412;9.514;2023-08-24T01:53:28;72134.44;;;24.27
64600;BMP280;6553;48.412;9.514;2023-08-24T01:55:55;72136.84;;;24.24
64600;BMP280;6553;48.412;9.514;2023-08-24T01:58:21;72133.25;;;24.29
64600;BMP280;6553;48.412;9.514;2023-08-24T02:00:47;72136.97;;;24.22
64600;BMP280;6553;48.412;9.514;2023-08-24T02:03:13;72140.41;;;24.30
64600;BMP280;6553;48.412;9.514;2023-08-24T02:05:39;72135.78;;;24.23
64600;BMP280;6553;48.412;9.514;2023-08-24T02:08:05;72145.47;;;24.30
64600;BMP280;6553;48.412;9.514;2023-08-24T02:10:31;72135.09;;;24.25
64600;BMP280;6553;48.412;9.514;2023-08-24T02:12:57;72138.31;;;24.28
64600;BMP280;6553;48.412;9.514;2023-08-24T02:15:22;72131.13;;;24.27
64600;BMP280;6553;48.412;9.514;2023-08-24T02:17:48;72139.91;;;24.30
64600;BMP280;6553;48.412;9.514;2023-08-24T02:20:14;72132.84;;;24.26
64600;BMP280;6553;48.412;9.514;2023-08-24T02:22:40;72127.16;;;24.18
64600;BMP280;6553;48.412;9.514;2023-08-24T02:25:08;72126.88;;;24.23
64600;BMP280;6553;48.412;9.514;2023-08-24T02:27:34;72130.06;;;24.26
64600;BMP280;6553;48.412;9.514;2023-08-24T02:30:00;72138.16;;;24.31
64600;BMP280;6553;48.412;9.514;2023-08-24T02:32:26;72126.34;;;24.22
64600;BMP280;6553;48.412;9.514;2023-08-24T02:34:51;72137.13;;;24.30
64600;BMP280;6553;48.412;9.514;2023-08-24T02:37:17;72130.19;;;24.23
64600;BMP280;6553;48.412;9.514;2023-08-24T02:39:43;72140.56;;;24.28
64600;BMP280;6553;48.412;9.514;2023-08-24T02:42:09;72131.81;;;24.25
64600;BMP280;6553;48.412;9.514;2023-08-24T02:44:35;72132.47;;;24.23
64600;BMP280;6553;48.412;9.514;2023-08-24T02:47:03;72131.38;;;24.22
64600;BMP280;6553;48.412;9.514;2023-08-24T02:49:29;72129.28;;;24.20
64600;BMP280;6553;48.412;9.514;2023-08-24T02:51:55;72124.75;;;24.21
64600;BMP280;6553;48.412;9.514;2023-08-24T02:54:21;72128.06;;;24.21
64600;BMP280;6553;48.412;9.514;2023-08-24T02:56:48;72123.44;;;24.14
64600;BMP280;6553;48.412;9.514;2023-08-24T02:59:14;72122.22;;;24.16
64600;BMP280;6553;48.412;9.514;2023-08-24T03:01:40;72125.81;;;24.22
64600;BMP280;6553;48.412;9.514;2023-08-24T03:04:07;72121.56;;;24.18
64600;BMP280;6553;48.412;9.514;2023-08-24T03:06:33;72128.47;;;24.24
64600;BMP280;6553;48.412;9.514;2023-08-24T03:09:00;72127.00;;;24.20
64600;BMP280;6553;48.412;9.514;2023-08-24T03:11:29;72129.53;;;24.25
64600;BMP280;6553;48.412;9.514;2023-08-24T03:13:55;72131.38;;;24.22
64600;BMP280;6553;48.412;9.514;2023-08-24T03:16:20;72126.88;;;24.23
64600;BMP280;6553;48.412;9.514;2023-08-24T03:18:46;72124.88;;;24.18
64600;BMP280;6553;48.412;9.514;2023-08-24T03:21:12;72127.00;;;24.20
64600;BMP280;6553;48.412;9.514;2023-08-24T03:23:38;72131.91;;;24.22
64600;BMP280;6553;48.412;9.514;2023-08-24T03:26:06;72128.75;;;24.19
64600;BMP280;6553;48.412;9.514;2023-08-24T03:28:32;72119.03;;;24.13
64600;BMP280;6553;48.412;9.514;2023-08-24T03:31:00;72134.06;;;24.24
64600;BMP280;6553;48.412;9.514;2023-08-24T03:33:26;72122.34;;;24.13
64600;BMP280;6553;48.412;9.514;2023-08-24T03:35:54;72136.31;;;24.24
64600;BMP280;6553;48.412;9.514;2023-08-24T03:38:20;72132.97;;;24.23
64600;BMP280;6553;48.412;9.514;2023-08-24T03:40:45;72120.09;;;24.14
64600;BMP280;6553;48.412;9.514;2023-08-24T03:43:11;72115.72;;;24.12
64600;BMP280;6553;48.412;9.514;2023-08-24T03:45:37;72125.53;;;24.16
64600;BMP280;6553;48.412;9.514;2023-08-24T03:48:04;72131.38;;;24.22
64600;BMP280;6553;48.412;9.514;2023-08-24T03:50:30;72127.16;;;24.18
64600;BMP280;6553;48.412;9.514;2023-08-24T03:52:56;72122.22;;;24.16
64600;BMP280;6553;48.412;9.514;2023-08-24T03:55:22;72125.53;;;24.16
64600;BMP280;6553;48.412;9.514;2023-08-24T03:57:48;72135.09;;;24.25
64600;BMP280;6553;48.412;9.514;2023-08-24T04:00:14;72134.06;;;24.24
64600;BMP280;6553;48.412;9.514;2023-08-24T04:02:41;72129.78;;;24.20
64600;BMP280;6553;48.412;9.514;2023-08-24T04:05:08;72123.16;;;24.19
64600;BMP280;6553;48.412;9.514;2023-08-24T04:07:34;72132.97;;;24.23
64600;BMP280;6553;48.412;9.514;2023-08-24T04:10:03;72117.97;;;24.12
64600;BMP280;6553;48.412;9.514;2023-08-24T04:12:32;72122.88;;;24.14
64600;BMP280;6553;48.412;9.514;2023-08-24T04:14:58;72128.75;;;24.19
64600;BMP280;6553;48.412;9.514;2023-08-24T04:17:25;72138.31;;;24.28
64600;BMP280;6553;48.412;9.514;2023-08-24T04:19:51;72130.19;;;24.23
64600;BMP280;6553;48.412;9.514;2023-08-24T04:22:16;72130.19;;;24.23
64600;BMP280;6553;48.412;9.514;2023-08-24T04:24:42;72139.38;;;24.29
64600;BMP280;6553;48.412;9.514;2023-08-24T04:27:08;72139.91;;;24.30
64600;BMP280;6553;48.412;9.514;2023-08-24T04:29:34;72146.81;;;24.36
64600;BMP280;6553;48.412;9.514;2023-08-24T04:31:59;72142.56;;;24.32
64600;BMP280;6553;48.412;9.514;2023-08-24T04:34:25;72135.09;;;24.25
64600;BMP280;6553;48.412;9.514;2023-08-24T04:36:51;72138.81;;;24.29
64600;BMP280;6553;48.412;9.514;2023-08-24T04:39:17;72140.41;;;24.30
64600;BMP280;6553;48.412;9.514;2023-08-24T04:41:44;72139.75;;;24.32
64600;BMP280;6553;48.412;9.514;2023-08-24T04:44:10;72153.72;;;24.43
64600;BMP280;6553;48.412;9.514;2023-08-24T04:46:36;72146.16;;;24.38
64600;BMP280;6553;48.412;9.514;2023-08-24T04:49:02;72147.75;;;24.40
64600;BMP280;6553;48.412;9.514;2023-08-24T04:51:29;72157.31;;;24.49
64600;BMP280;6553;48.412;9.514;2023-08-24T04:53:54;72167.69;;;24.53
64600;BMP280;6553;48.412;9.514;2023-08-24T04:56:20;72160.66;;;24.49
64600;BMP280;6553;48.412;9.514;2023-08-24T04:58:56;72162.09;;;24.53
64600;BMP280;6553;48.412;9.514;2023-08-24T05:01:26;72168.06;;;24.56
64600;BMP280;6553;48.412;9.514;2023-08-24T05:03:53;72160.78;;;24.47
64600;BMP280;6553;48.412;9.514;2023-08-24T05:06:19;72152.94;;;24.47
64600;BMP280;6553;48.412;9.514;2023-08-24T05:08:45;72158.53;;;24.47
64600;BMP280;6553;48.412;9.514;2023-08-24T05:11:19;72161.31;;;24.47
64600;BMP280;6553;48.412;9.514;2023-08-24T05:13:46;72170.22;;;24.58
64600;BMP280;6553;48.412;9.514;2023-08-24T05:16:13;72163.16;;;24.54
64600;BMP280;6553;48.412;9.514;2023-08-24T05:18:39;72174.47;;;24.62
64600;BMP280;6553;48.412;9.514;2023-08-24T05:21:06;72181.91;;;24.69
64600;BMP280;6553;48.412;9.514;2023-08-24T05:23:35;72181.38;;;24.69
64600;BMP280;6553;48.412;9.514;2023-08-24T05:26:02;72187.63;;;24.77
64600;BMP280;6553;48.412;9.514;2023-08-24T05:28:30;72187.63;;;24.77
64600;BMP280;6553;48.412;9.514;2023-08-24T05:30:57;72189.22;;;24.79
64600;BMP280;6553;48.412;9.514;2023-08-24T05:33:25;72190.56;;;24.75
64600;BMP280;6553;48.412;9.514;2023-08-24T05:35:51;72192.00;;;24.79
64600;BMP280;6553;48.412;9.514;2023-08-24T05:38:18;72198.91;;;24.86
64600;BMP280;6553;48.412;9.514;2023-08-24T05:40:47;72191.50;;;24.78
64600;BMP280;6553;48.412;9.514;2023-08-24T05:43:13;72175.53;;;24.63
64600;BMP280;6553;48.412;9.514;2023-08-24T05:45:40;72175.00;;;24.63
64600;BMP280;6553;48.412;9.514;2023-08-24T05:48:07;72192.00;;;24.79
64600;BMP280;6553;48.412;9.514;2023-08-24T05:50:33;72188.28;;;24.75
64600;BMP280;6553;48.412;9.514;2023-08-24T05:52:59;72192.53;;;24.79
64600;BMP280;6553;48.412;9.514;2023-08-24T05:55:25;72183.91;;;24.74
64600;BMP280;6553;48.412;9.514;2023-08-24T05:57:51;72188.28;;;24.75
64600;BMP280;6553;48.412;9.514;2023-08-24T06:00:17;72188.69;;;24.78
64600;BMP280;6553;48.412;9.514;2023-08-24T06:02:43;72198.91;;;24.86
64600;BMP280;6553;48.412;9.514;2023-08-24T06:05:09;72195.59;;;24.85
64600;BMP280;6553;48.412;9.514;2023-08-24T06:07:36;72199.84;;;24.89
64600;BMP280;6553;48.412;9.514;2023-08-24T06:10:03;72205.69;;;24.95
64600;BMP280;6553;48.412;9.514;2023-08-24T06:12:28;72202.91;;;24.95
64600;BMP280;6553;48.412;9.514;2023-08-24T06:14:54;72205.84;;;24.92
64600;BMP280;6553;48.412;9.514;2023-08-24T06:17:20;72204.66;;;24.94
64600;BMP280;6553;48.412;9.514;2023-08-24T06:19:46;72204.09;;;24.93
64600;BMP280;6553;48.412;9.514;2023-08-24T06:22:12;72211.16;;;24.97
64600;BMP280;6553;48.412;9.514;2023-08-24T06:24:37;72209.56;;;24.96
64600;BMP280;6553;48.412;9.514;2023-08-24T06:27:03;72211.16;;;24.97
64600;BMP280;6553;48.412;9.514;2023-08-24T06:29:29;72211.69;;;24.98
64600;BMP280;6553;48.412;9.514;2023-08-24T06:31:55;72215.94;;;25.02
64600;BMP280;6553;48.412;9.514;2023-08-24T06:34:21;72219.53;;;25.08
64600;BMP280;6553;48.412;9.514;2023-08-24T06:36:47;72219.66;;;25.05
64600;BMP280;6553;48.412;9.514;2023-08-24T06:39:13;72221.53;;;25.02
64600;BMP280;6553;48.412;9.514;2023-08-24T06:41:39;72214.88;;;25.01
64600;BMP280;6553;48.412;9.514;2023-08-24T06:44:07;72204.09;;;24.93
64600;BMP280;6553;48.412;9.514;2023-08-24T06:46:32;72222.88;;;25.08
64600;BMP280;6553;48.412;9.514;2023-08-24T06:48:58;72217.69;;;25.01
64600;BMP280;6553;48.412;9.514;2023-08-24T06:51:25;72215.94;;;25.02
64600;BMP280;6553;48.412;9.514;2023-08-24T06:53:51;72208.75;;;25.00
64600;BMP280;6553;48.412;9.514;2023-08-24T06:56:16;72215.16;;;24.96
64600;BMP280;6553;48.412;9.514;2023-08-24T06:58:44;72213.16;;;25.02
64600;BMP280;6553;48.412;9.514;2023-08-24T07:01:11;72216.59;;;25.00
64600;BMP280;6553;48.412;9.514;2023-08-24T07:03:37;72124.47;;;24.15
64600;BMP280;6553;48.412;9.514;2023-08-24T07:06:06;72135.66;;;24.26
64600;BMP280;6553;48.412;9.514;2023-08-24T07:08:37;72111.06;;;24.05
64600;BMP280;6553;48.412;9.514;2023-08-24T07:11:03;72133.78;;;24.29
64600;BMP280;6553;48.412;9.514;2023-08-24T07:13:29;72142.56;;;24.32
64600;BMP280;6553;48.412;9.514;2023-08-24T07:15:55;72130.47;;;24.29
64600;BMP280;6553;48.412;9.514;2023-08-24T07:18:21;72118.63;;;24.10
64600;BMP280;6553;48.412;9.514;2023-08-24T07:20:47;72096.69;;;23.92
64600;BMP280;6553;48.412;9.514;2023-08-24T07:23:13;72116.78;;;24.13
64600;BMP280;6553;48.412;9.514;2023-08-24T07:25:39;72134.97;;;24.28
64600;BMP280;6553;48.412;9.514;2023-08-24T07:28:04;72129.13;;;24.22
64600;BMP280;6553;48.412;9.514;2023-08-24T07:30:31;72138.44;;;24.36
64600;BMP280;6553;48.412;9.514;2023-08-24T07:32:58;72146.81;;;24.36
64600;BMP280;6553;48.412;9.514;2023-08-24T07:35:24;72142.97;;;24.35
64600;BMP280;6553;48.412;9.514;2023-08-24T07:37:53;72127.66;;;24.18
64600;BMP280;6553;48.412;9.514;2023-08-24T07:40:19;72123.16;;;24.19
64600;BMP280;6553;48.412;9.514;2023-08-24T07:42:52;72073.19;;;23.72
64600;BMP280;6553;48.412;9.514;2023-08-24T07:45:21;72083.94;;;23.80
64600;BMP280;6553;48.412;9.514;2023-08-24T07:47:46;72108.94;;;24.03
64600;BMP280;6553;48.412;9.514;2023-08-24T07:50:12;72140.56;;;24.28
64600;BMP280;6553;48.412;9.514;2023-08-24T07:52:39;72111.47;;;24.08
64600;BMP280;6553;48.412;9.514;2023-08-24T07:55:06;72130.72;;;24.24
64600;BMP280;6553;48.412;9.514;2023-08-24T07:57:36;72121.41;;;24.20
64600;BMP280;6553;48.412;9.514;2023-08-24T08:00:04;72160.63;;;24.60
64600;BMP280;6553;48.412;9.514;2023-08-24T08:02:38;72189.75;;;24.79
64600;BMP280;6553;48.412;9.514;2023-08-24T08:05:04;72198.66;;;24.91
64600;BMP280;6553;48.412;9.514;2023-08-24T08:07:32;72202.91;;;24.95
64600;BMP280;6553;48.412;9.514;2023-08-24T08:09:58;72209.03;;;24.95
64600;BMP280;6553;48.412;9.514;2023-08-24T08:12:24;72207.28;;;24.96
64600;BMP280;6553;48.412;9.514;2023-08-24T08:14:50;72210.47;;;24.99
64600;BMP280;6553;48.412;9.514;2023-08-24T08:17:15;72213.16;;;25.02
64600;BMP280;6553;48.412;9.514;2023-08-24T08:19:41;72215.94;;;25.02
64600;BMP280;6553;48.412;9.514;2023-08-24T08:22:07;72217.00;;;25.03
64600;BMP280;6553;48.412;9.514;2023-08-24T08:24:33;72210.34;;;25.02
64600;BMP280;6553;48.412;9.514;2023-08-24T08:26:59;72216.88;;;25.05
64600;BMP280;6553;48.412;9.514;2023-08-24T08:29:25;72217.41;;;25.06
64600;BMP280;6553;48.412;9.514;2023-08-24T08:31:51;72213.03;;;25.04
64600;BMP280;6553;48.412;9.514;2023-08-24T08:34:16;72217.00;;;25.03
64600;BMP280;6553;48.412;9.514;2023-08-24T08:36:42;72224.06;;;25.07
64600;BMP280;6553;48.412;9.514;2023-08-24T08:39:08;72222.88;;;25.08
64600;BMP280;6553;48.412;9.514;2023-08-24T08:41:42;72223.25;;;25.11
64600;BMP280;6553;48.412;9.514;2023-08-24T08:44:12;72221.66;;;25.10
64600;BMP280;6553;48.412;9.514;2023-08-24T08:46:42;72219.94;;;25.11
64600;BMP280;6553;48.412;9.514;2023-08-24T08:49:09;72220.47;;;25.11
64600;BMP280;6553;48.412;9.514;2023-08-24T08:51:36;72223.81;;;25.12
64600;BMP280;6553;48.412;9.514;2023-08-24T08:54:06;72224.31;;;25.12
64600;BMP280;6553;48.412;9.514;2023-08-24T08:56:32;72224.84;;;25.13
64600;BMP280;6553;48.412;9.514;2023-08-24T08:59:00;72224.31;;;25.12
64600;BMP280;6553;48.412;9.514;2023-08-24T09:01:27;72227.00;;;25.15
64600;BMP280;6553;48.412;9.514;2023-08-24T09:03:54;72218.84;;;25.10
64600;BMP280;6553;48.412;9.514;2023-08-24T09:06:20;72228.72;;;25.14
64600;BMP280;6553;48.412;9.514;2023-08-24T09:08:48;72228.16;;;25.13
64600;BMP280;6553;48.412;9.514;2023-08-24T09:11:15;72221.53;;;25.12
64600;BMP280;6553;48.412;9.514;2023-08-24T09:13:40;72229.25;;;25.14
64600;BMP280;6553;48.412;9.514;2023-08-24T09:16:07;72228.56;;;25.16
64600;BMP280;6553;48.412;9.514;2023-08-24T09:18:36;72226.31;;;25.17
64600;BMP280;6553;48.412;9.514;2023-08-24T09:21:11;72226.31;;;25.17
64600;BMP280;6553;48.412;9.514;2023-08-24T09:23:43;72223.50;;;25.17
64600;BMP280;6553;48.412;9.514;2023-08-24T09:26:10;72232.28;;;25.20
64600;BMP280;6553;48.412;9.514;2023-08-24T09:28:37;72231.91;;;25.17
64600;BMP280;6553;48.412;9.514;2023-08-24T09:31:05;72235.63;;;25.20
64600;BMP280;6553;48.412;9.514;2023-08-24T09:33:31;72228.47;;;25.19
64600;BMP280;6553;48.412;9.514;2023-08-24T09:35:56;72232.28;;;25.20
64600;BMP280;6553;48.412;9.514;2023-08-24T09:38:27;72231.66;;;25.22
64600;BMP280;6553;48.412;9.514;2023-08-24T09:40:55;72233.63;;;25.16
64600;BMP280;6553;48.412;9.514;2023-08-24T09:43:23;72232.69;;;25.23
64600;BMP280;6553;48.412;9.514;2023-08-24T09:45:54;72232.19;;;25.22
64600;BMP280;6553;48.412;9.514;2023-08-24T09:48:20;72232.28;;;25.20
64600;BMP280;6553;48.412;9.514;2023-08-24T09:50:50;72230.56;;;25.21
64600;BMP280;6553;48.412;9.514;2023-08-24T09:53:22;72233.22;;;25.23
64600;BMP280;6553;48.412;9.514;2023-08-24T09:55:59;72236.53;;;25.24
64600;BMP280;6553;48.412;9.514;2023-08-24T09:58:26;72242.00;;;25.26
64600;BMP280;6553;48.412;9.514;2023-08-24T10:00:53;72242.00;;;25.26
64600;BMP280;6553;48.412;9.514;2023-08-24T10:03:21;72238.56;;;25.28
64600;BMP280;6553;48.412;9.514;2023-08-24T10:05:52;72235.91;;;25.26
64600;BMP280;6553;48.412;9.514;2023-08-24T10:08:27;72235.91;;;25.26
64600;BMP280;6553;48.412;9.514;2023-08-24T10:10:55;72241.88;;;25.29
64600;BMP280;6553;48.412;9.514;2023-08-24T10:15:59;72242.53;;;25.27
64600;BMP280;6553;48.412;9.514;2023-08-24T10:18:26;72236.94;;;25.27
64600;BMP280;6553;48.412;9.514;2023-08-24T10:20:52;72238.56;;;25.28
64600;BMP280;6553;48.412;9.514;2023-08-24T10:23:19;72239.09;;;25.29
64600;BMP280;6553;48.412;9.514;2023-08-24T10:25:46;72242.91;;;25.30
64600;BMP280;6553;48.412;9.514;2023-08-24T10:28:14;72241.19;;;25.31
64600;BMP280;6553;48.412;9.514;2023-08-24T10:30:42;72245.72;;;25.30
64600;BMP280;6553;48.412;9.514;2023-08-24T10:33:12;72244.00;;;25.31
64600;BMP280;6553;48.412;9.514;2023-08-24T10:35:39;72247.31;;;25.31
64600;BMP280;6553;48.412;9.514;2023-08-24T10:38:06;72243.34;;;25.33
64600;BMP280;6553;48.412;9.514;2023-08-24T10:40:37;72242.91;;;25.30
64600;BMP280;6553;48.412;9.514;2023-08-24T10:43:05;72244.53;;;25.31
64600;BMP280;6553;48.412;9.514;2023-08-24T10:45:57;72249.44;;;25.33
64600;BMP280;6553;48.412;9.514;2023-08-24T10:48:28;72245.47;;;25.35
64600;BMP280;6553;48.412;9.514;2023-08-24T10:53:59;72254.09;;;25.40
64600;BMP280;6553;48.412;9.514;2023-08-24T10:56:39;72249.81;;;25.36
64600;BMP280;6553;48.412;9.514;2023-08-24T10:59:19;72245.47;;;25.35
64600;BMP280;6553;48.412;9.514;2023-08-24T11:01:55;72246.00;;;25.35
64600;BMP280;6553;48.412;9.514;2023-08-24T11:04:21;72249.44;;;25.33
64600;BMP280;6553;48.412;9.514;2023-08-24T11:07:05;72244.38;;;25.34
64600;BMP280;6553;48.412;9.514;2023-08-24T11:09:49;72246.53;;;25.36
64600;BMP280;6553;48.412;9.514;2023-08-24T11:12:15;72256.88;;;25.40
64600;BMP280;6553;48.412;9.514;2023-08-24T11:14:53;72254.78;;;25.38
64600;BMP280;6553;48.412;9.514;2023-08-24T11:17:24;72253.69;;;25.37
64600;BMP280;6553;48.412;9.514;2023-08-24T11:19:55;72257.03;;;25.38
64600;BMP280;6553;48.412;9.514;2023-08-24T11:22:21;72247.03;;;25.36
64600;BMP280;6553;48.412;9.514;2023-08-24T11:24:47;72252.13;;;25.36
64600;BMP280;6553;48.412;9.514;2023-08-24T11:27:13;72249.72;;;25.39
64600;BMP280;6553;48.412;9.514;2023-08-24T11:29:40;72248.13;;;25.37
64600;BMP280;6553;48.412;9.514;2023-08-24T11:32:05;72250.38;;;25.37
64600;BMP280;6553;48.412;9.514;2023-08-24T11:34:33;72248.66;;;25.38
64600;BMP280;6553;48.412;9.514;2023-08-24T11:36:59;72248.66;;;25.38
64600;BMP280;6553;48.412;9.514;2023-08-24T11:39:25;72245.84;;;25.38
64600;BMP280;6553;48.412;9.514;2023-08-24T11:42:04;72254.09;;;25.40
64600;BMP280;6553;48.412;9.514;2023-08-24T11:44:45;72257.44;;;25.41
64600;BMP280;6553;48.412;9.514;2023-08-24T11:47:15;72254.25;;;25.38
64600;BMP280;6553;48.412;9.514;2023-08-24T11:49:41;72251.84;;;25.41
64600;BMP280;6553;48.412;9.514;2023-08-24T11:52:08;72251.84;;;25.41
64600;BMP280;6553;48.412;9.514;2023-08-24T11:54:35;72256.75;;;25.43
64600;BMP280;6553;48.412;9.514;2023-08-24T11:57:07;72249.03;;;25.41
64600;BMP280;6553;48.412;9.514;2023-08-24T11:59:35;72253.06;;;25.39
64600;BMP280;6553;48.412;9.514;2023-08-24T12:02:03;72257.81;;;25.44
64600;BMP280;6553;48.412;9.514;2023-08-24T12:04:38;72251.84;;;25.41
64600;BMP280;6553;48.412;9.514;2023-08-24T12:07:12;72254.47;;;25.43
64600;BMP280;6553;48.412;9.514;2023-08-24T12:09:40;72256.09;;;25.45
64600;BMP280;6553;48.412;9.514;2023-08-24T12:12:15;72259.56;;;25.43
64600;BMP280;6553;48.412;9.514;2023-08-24T12:14:45;72253.97;;;25.43
64600;BMP280;6553;48.412;9.514;2023-08-24T12:17:12;72264.47;;;25.45
64600;BMP280;6553;48.412;9.514;2023-08-24T12:19:43;72259.28;;;25.48
64600;BMP280;6553;48.412;9.514;2023-08-24T12:22:19;72254.38;;;25.46
64600;BMP280;6553;48.412;9.514;2023-08-24T12:24:46;72259.03;;;25.42
64600;BMP280;6553;48.412;9.514;2023-08-24T12:27:19;72261.00;;;25.47
64600;BMP280;6553;48.412;9.514;2023-08-24T12:29:46;72259.97;;;25.46
64600;BMP280;6553;48.412;9.514;2023-08-24T12:32:12;72261.16;;;25.44
64600;BMP280;6553;48.412;9.514;2023-08-24T12:34:40;72257.81;;;25.44
64600;BMP280;6553;48.412;9.514;2023-08-24T12:37:06;72257.28;;;25.43
64600;BMP280;6553;48.412;9.514;2023-08-24T12:39:36;72259.44;;;25.45
64600;BMP280;6553;48.412;9.514;2023-08-24T12:42:03;72264.88;;;25.48
64600;BMP280;6553;48.412;9.514;2023-08-24T12:44:29;72260.34;;;25.49
64600;BMP280;6553;48.412;9.514;2023-08-24T12:46:55;72261.00;;;25.47
64600;BMP280;6553;48.412;9.514;2023-08-24T12:49:20;72258.22;;;25.47
64600;BMP280;6553;48.412;9.514;2023-08-24T12:51:46;72261.41;;;25.50
64600;BMP280;6553;48.412;9.514;2023-08-24T12:54:13;72268.06;;;25.51
64600;BMP280;6553;48.412;9.514;2023-08-24T12:56:39;72261.41;;;25.50
64600;BMP280;6553;48.412;9.514;2023-08-24T12:59:08;72264.72;;;25.50
64600;BMP280;6553;48.412;9.514;2023-08-24T13:01:34;72265.25;;;25.51
64600;BMP280;6553;48.412;9.514;2023-08-24T13:04:00;72262.47;;;25.51
64600;BMP280;6553;48.412;9.514;2023-08-24T13:06:26;72262.63;;;25.48
64600;BMP280;6553;48.412;9.514;2023-08-24T13:08:55;72265.66;;;25.54
64600;BMP280;6553;48.412;9.514;2023-08-24T13:11:22;72267.00;;;25.50
64600;BMP280;6553;48.412;9.514;2023-08-24T13:13:49;72261.94;;;25.50
64600;BMP280;6553;48.412;9.514;2023-08-24T13:16:15;72264.63;;;25.53
64600;BMP280;6553;48.412;9.514;2023-08-24T13:18:42;72268.59;;;25.51
64600;BMP280;6553;48.412;9.514;2023-08-24T13:21:08;72266.88;;;25.52
64600;BMP280;6553;48.412;9.514;2023-08-24T13:23:33;72263.16;;;25.49
64600;BMP280;6553;48.412;9.514;2023-08-24T13:25:59;72263.00;;;25.51
64600;BMP280;6553;48.412;9.514;2023-08-24T13:28:26;72262.47;;;25.51
64600;BMP280;6553;48.412;9.514;2023-08-24T13:30:51;72270.22;;;25.53
64600;BMP280;6553;48.412;9.514;2023-08-24T13:33:17;72266.88;;;25.52
64600;BMP280;6553;48.412;9.514;2023-08-24T13:35:45;72270.72;;;25.53
64600;BMP280;6553;48.412;9.514;2023-08-24T13:38:11;72267.81;;;25.56
64600;BMP280;6553;48.412;9.514;2023-08-24T13:40:37;72269.13;;;25.52
64600;BMP280;6553;48.412;9.514;2023-08-24T13:43:03;72269.13;;;25.52
64600;BMP280;6553;48.412;9.514;2023-08-24T13:45:30;72262.34;;;25.53
64600;BMP280;6553;48.412;9.514;2023-08-24T13:47:57;72266.19;;;25.54
64600;BMP280;6553;48.412;9.514;2023-08-24T13:50:23;72267.81;;;25.56
64600;BMP280;6553;48.412;9.514;2023-08-24T13:52:49;72274.84;;;25.60
64600;BMP280;6553;48.412;9.514;2023-08-24T13:55:15;72267.28;;;25.55
64600;BMP280;6553;48.412;9.514;2023-08-24T13:57:42;72269.00;;;25.54
64600;BMP280;6553;48.412;9.514;2023-08-24T14:00:09;72272.88;;;25.55
64600;BMP280;6553;48.412;9.514;2023-08-24T14:02:38;72275.50;;;25.58
64600;BMP280;6553;48.412;9.514;2023-08-24T14:05:05;72272.72;;;25.58
64600;BMP280;6553;48.412;9.514;2023-08-24T14:07:34;72269.38;;;25.57
64600;BMP280;6553;48.412;9.514;2023-08-24T14:10:01;72271.13;;;25.56
64600;BMP280;6553;48.412;9.514;2023-08-24T14:12:28;72271.66;;;25.57
64600;BMP280;6553;48.412;9.514;2023-08-24T14:14:53;72274.47;;;25.57
64600;BMP280;6553;48.412;9.514;2023-08-24T14:17:19;72268.88;;;25.57
64600;BMP280;6553;48.412;9.514;2023-08-24T14:19:45;72267.81;;;25.56
64600;BMP280;6553;48.412;9.514;2023-08-24T14:22:10;72272.19;;;25.57
64600;BMP280;6553;48.412;9.514;2023-08-24T14:24:36;72273.91;;;25.56
64600;BMP280;6553;48.412;9.514;2023-08-24T14:27:02;72274.97;;;25.57
64600;BMP280;6553;48.412;9.514;2023-08-24T14:29:28;72268.75;;;25.59
64600;BMP280;6553;48.412;9.514;2023-08-24T14:31:53;72273.78;;;25.59
64600;BMP280;6553;48.412;9.514;2023-08-24T14:34:19;72279.22;;;25.61